sensor_id;sensor_type;location;lat;lon;timestamp;pressure;altitude;pressure_sealevel;temperature;humidity
41636;BME280;27623;51.966;4.602;2023-09-19T00:00:01;65075.47;;;16.48;87.87
41636;BME280;27623;51.966;4.602;2023-09-19T00:02:26;65061.31;;;16.52;89.46
41636;BME280;27623;51.966;4.602;2023-09-19T00:04:52;65076.34;;;16.61;92.31
41636;BME280;27623;51.966;4.602;2023-09-19T00:07:18;65061.28;;;16.59;91.62
41636;BME280;27623;51.966;4.602;2023-09-19T00:09:44;65057.03;;;16.64;91.94
41636;BME280;27623;51.966;4.602;2023-09-19T00:12:09;65096.72;;;16.65;87.97
41636;BME280;27623;51.966;4.602;2023-09-19T00:14:35;65073.53;;;16.72;89.95
41636;BME280;27623;51.966;4.602;2023-09-19T00:17:03;65094.13;;;16.72;90.04
41636;BME280;27623;51.966;4.602;2023-09-19T00:19:36;65079.81;;;16.66;88.01
41636;BME280;27623;51.966;4.602;2023-09-19T00:22:03;65077.59;;;16.71;89.36
41636;BME280;27623;51.966;4.602;2023-09-19T00:24:29;65090.44;;;16.71;90.29
41636;BME280;27623;51.966;4.602;2023-09-19T00:26:54;65043.06;;;16.63;87.78
41636;BME280;27623;51.966;4.602;2023-09-19T00:29:21;65043.78;;;16.66;82.93
41636;BME280;27623;51.966;4.602;2023-09-19T00:31:48;65047.44;;;16.67;85.40
41636;BME280;27623;51.966;4.602;2023-09-19T00:34:14;65069.50;;;16.66;82.80
41636;BME280;27623;51.966;4.602;2023-09-19T00:36:39;65035.53;;;16.59;83.30
41636;BME280;27623;51.966;4.602;2023-09-19T00:39:05;65054.44;;;16.64;84.28
41636;BME280;27623;51.966;4.602;2023-09-19T00:41:32;65064.00;;;16.68;85.14
41636;BME280;27623;51.966;4.602;2023-09-19T00:43:57;65070.78;;;16.70;86.52
41636;BME280;27623;51.966;4.602;2023-09-19T00:46:25;65070.06;;;16.67;85.37
41636;BME280;27623;51.966;4.602;2023-09-19T00:48:53;65061.66;;;16.57;84.63
41636;BME280;27623;51.966;4.602;2023-09-19T00:51:20;65088.31;;;16.55;84.04
41636;BME280;27623;51.966;4.602;2023-09-19T00:53:47;65004.72;;;16.52;84.46
41636;BME280;27623;51.966;4.602;2023-09-19T00:56:14;65080.56;;;16.62;84.02
41636;BME280;27623;51.966;4.602;2023-09-19T00:58:43;65063.47;;;16.61;85.76
41636;BME280;27623;51.966;4.602;2023-09-19T01:01:09;65037.41;;;16.56;85.84
41636;BME280;27623;51.966;4.602;2023-09-19T01:03:40;65048.63;;;16.54;83.54
41636;BME280;27623;51.966;4.602;2023-09-19T01:06:06;65067.53;;;16.60;86.01
41636;BME280;27623;51.966;4.602;2023-09-19T01:08:32;65093.22;;;16.67;81.74
41636;BME280;27623;51.966;4.602;2023-09-19T01:11:09;65053.59;;;16.52;82.37
41636;BME280;27623;51.966;4.602;2023-09-19T01:30:56;65078.00;;;16.62;86.97
41636;BME280;27623;51.966;4.602;2023-09-19T01:33:25;65068.66;;;16.54;86.94
41636;BME280;27623;51.966;4.602;2023-09-19T01:35:51;65068.84;;;16.49;86.59
41636;BME280;27623;51.966;4.602;2023-09-19T01:38:18;65052.28;;;16.55;87.76
41636;BME280;27623;51.966;4.602;2023-09-19T01:40:54;65069.75;;;16.55;89.50
41636;BME280;27623;51.966;4.602;2023-09-19T01:43:41;65025.97;;;16.62;89.19
41636;BME280;27623;51.966;4.602;2023-09-19T01:46:29;65029.13;;;16.55;89.54
41636;BME280;27623;51.966;4.602;2023-09-19T01:51:49;65046.63;;;16.47;91.07
41636;BME280;27623;51.966;4.602;2023-09-19T01:54:37;64993.75;;;16.41;89.44
41636;BME280;27623;51.966;4.602;2023-09-19T01:57:11;65042.47;;;16.39;88.16
41636;BME280;27623;51.966;4.602;2023-09-19T01:59:45;65051.78;;;16.47;90.03
41636;BME280;27623;51.966;4.602;2023-09-19T02:02:15;65007.91;;;16.38;89.38
41636;BME280;27623;51.966;4.602;2023-09-19T02:04:47;65035.13;;;16.37;87.74
41636;BME280;27623;51.966;4.602;2023-09-19T02:07:13;65032.16;;;16.39;89.30
41636;BME280;27623;51.966;4.602;2023-09-19T02:09:42;65052.78;;;16.32;88.90
41636;BME280;27623;51.966;4.602;2023-09-19T02:12:10;65037.31;;;16.39;90.26
41636;BME280;27623;51.966;4.602;2023-09-19T02:14:35;65031.06;;;16.38;88.26
41636;BME280;27623;51.966;4.602;2023-09-19T02:17:05;65026.31;;;16.36;88.02
41636;BME280;27623;51.966;4.602;2023-09-19T02:19:36;65019.16;;;16.29;87.95
41636;BME280;27623;51.966;4.602;2023-09-19T02:22:04;65036.97;;;16.34;86.57
41636;BME280;27623;51.966;4.602;2023-09-19T02:24:33;65040.84;;;16.30;85.69
41636;BME280;27623;51.966;4.602;2023-09-19T02:26:58;65024.69;;;16.27;84.99
41636;BME280;27623;51.966;4.602;2023-09-19T02:29:28;65012.00;;;16.30;85.39
41636;BME280;27623;51.966;4.602;2023-09-19T02:31:55;65001.59;;;16.20;85.98
41636;BME280;27623;51.966;4.602;2023-09-19T02:34:21;65028.91;;;16.29;87.65
41636;BME280;27623;51.966;4.602;2023-09-19T02:36:46;65023.56;;;16.33;87.22
41636;BME280;27623;51.966;4.602;2023-09-19T02:39:12;65036.28;;;16.24;87.76
41636;BME280;27623;51.966;4.602;2023-09-19T02:41:37;65001.91;;;16.25;88.45
41636;BME280;27623;51.966;4.602;2023-09-19T02:44:03;65010.56;;;16.24;88.92
41636;BME280;27623;51.966;4.602;2023-09-19T02:46:33;65018.44;;;16.26;90.05
41636;BME280;27623;51.966;4.602;2023-09-19T02:48:59;64975.47;;;16.22;90.56
41636;BME280;27623;51.966;4.602;2023-09-19T02:51:24;65043.03;;;16.32;91.06
41636;BME280;27623;51.966;4.602;2023-09-19T02:53:50;65047.84;;;16.27;90.46
41636;BME280;27623;51.966;4.602;2023-09-19T02:56:18;65004.75;;;16.13;89.97
41636;BME280;27623;51.966;4.602;2023-09-19T02:58:43;65009.41;;;15.99;91.67
41636;BME280;27623;51.966;4.602;2023-09-19T03:01:13;64993.97;;;15.99;92.71
41636;BME280;27623;51.966;4.602;2023-09-19T03:03:39;64961.94;;;15.81;95.17
41636;BME280;27623;51.966;4.602;2023-09-19T03:06:06;64974.22;;;15.80;96.11
41636;BME280;27623;51.966;4.602;2023-09-19T03:08:34;64983.75;;;15.85;97.05
41636;BME280;27623;51.966;4.602;2023-09-19T03:11:04;64989.06;;;15.87;98.21
41636;BME280;27623;51.966;4.602;2023-09-19T03:13:33;64955.28;;;15.89;98.01
41636;BME280;27623;51.966;4.602;2023-09-19T03:15:58;64966.13;;;15.82;98.11
41636;BME280;27623;51.966;4.602;2023-09-19T03:18:24;64938.25;;;15.80;99.10
41636;BME280;27623;51.966;4.602;2023-09-19T03:20:55;64989.63;;;15.88;99.54
41636;BME280;27623;51.966;4.602;2023-09-19T03:23:21;64982.63;;;15.91;97.82
41636;BME280;27623;51.966;4.602;2023-09-19T03:25:47;64975.47;;;15.91;98.52
41636;BME280;27623;51.966;4.602;2023-09-19T03:28:13;64990.53;;;15.93;97.92
41636;BME280;27623;51.966;4.602;2023-09-19T03:30:38;64947.78;;;15.85;97.12
41636;BME280;27623;51.966;4.602;2023-09-19T03:33:04;64969.13;;;15.73;97.94
41636;BME280;27623;51.966;4.602;2023-09-19T03:35:30;64953.16;;;15.73;97.42
41636;BME280;27623;51.966;4.602;2023-09-19T03:37:55;64944.84;;;15.79;96.87
41636;BME280;27623;51.966;4.602;2023-09-19T03:40:21;64973.19;;;15.72;97.05
41636;BME280;27623;51.966;4.602;2023-09-19T03:42:47;64967.25;;;15.84;97.84
41636;BME280;27623;51.966;4.602;2023-09-19T03:45:13;64921.81;;;15.65;97.77
41636;BME280;27623;51.966;4.602;2023-09-19T03:47:39;64905.50;;;15.60;98.43
41636;BME280;27623;51.966;4.602;2023-09-19T03:50:06;64950.25;;;15.68;98.34
41636;BME280;27623;51.966;4.602;2023-09-19T03:52:36;64916.28;;;15.74;98.42
41636;BME280;27623;51.966;4.602;2023-09-19T03:55:01;64909.81;;;15.40;98.64
41636;BME280;27623;51.966;4.602;2023-09-19T03:57:35;64924.81;;;15.56;100.00
41636;BME280;27623;51.966;4.602;2023-09-19T04:00:01;64937.94;;;15.68;100.00
41636;BME280;27623;51.966;4.602;2023-09-19T04:02:26;64919.88;;;15.44;100.00
41636;BME280;27623;51.966;4.602;2023-09-19T04:04:58;64948.63;;;15.59;100.00
41636;BME280;27623;51.966;4.602;2023-09-19T04:07:26;64906.59;;;15.61;100.00
41636;BME280;27623;51.966;4.602;2023-09-19T04:09:54;64920.53;;;15.62;100.00
41636;BME280;27623;51.966;4.602;2023-09-19T04:12:19;64931.91;;;15.63;100.00
41636;BME280;27623;51.966;4.602;2023-09-19T04:14:45;64933.94;;;15.62;100.00
41636;BME280;27623;51.966;4.602;2023-09-19T04:17:10;64946.25;;;15.62;100.00
41636;BME280;27623;51.966;4.602;2023-09-19T04:19:36;64893.59;;;15.58;100.00
41636;BME280;27623;51.966;4.602;2023-09-19T04:22:02;64926.97;;;15.65;100.00
41636;BME280;27623;51.966;4.602;2023-09-19T04:24:28;64957.97;;;15.68;100.00
41636;BME280;27623;51.966;4.602;2023-09-19T04:26:53;64963.91;;;15.57;100.00
41636;BME280;27623;51.966;4.602;2023-09-19T04:29:21;64942.38;;;15.65;100.00
41636;BME280;27623;51.966;4.602;2023-09-19T04:31:46;64928.25;;;15.62;100.00
41636;BME280;27623;51.966;4.602;2023-09-19T04:34:12;64948.09;;;15.59;100.00
41636;BME280;27623;51.966;4.602;2023-09-19T04:36:41;64913.25;;;15.53;100.00
41636;BME280;27623;51.966;4.602;2023-09-19T04:39:09;64897.81;;;15.60;100.00
41636;BME280;27623;51.966;4.602;2023-09-19T04:41:36;64941.13;;;15.55;100.00
41636;BME280;27623;51.966;4.602;2023-09-19T04:44:05;64920.16;;;15.64;100.00
41636;BME280;27623;51.966;4.602;2023-09-19T04:46:30;64936.47;;;15.69;100.00
41636;BME280;27623;51.966;4.602;2023-09-19T04:48:56;64959.81;;;15.65;100.00
41636;BME280;27623;51.966;4.602;2023-09-19T04:51:22;64907.56;;;15.52;100.00
41636;BME280;27623;51.966;4.602;2023-09-19T04:53:47;64923.47;;;15.67;100.00
41636;BME280;27623;51.966;4.602;2023-09-19T04:56:13;64941.13;;;15.55;100.00
41636;BME280;27623;51.966;4.602;2023-09-19T04:58:38;64928.13;;;15.45;100.00
41636;BME280;27623;51.966;4.602;2023-09-19T05:01:04;64915.84;;;15.45;100.00
41636;BME280;27623;51.966;4.602;2023-09-19T05:03:29;64889.25;;;15.40;100.00
41636;BME280;27623;51.966;4.602;2023-09-19T05:05:55;64905.59;;;15.38;100.00
41636;BME280;27623;51.966;4.602;2023-09-19T05:08:20;64903.19;;;15.41;100.00
41636;BME280;27623;51.966;4.602;2023-09-19T05:10:47;64930.94;;;15.33;100.00
41636;BME280;27623;51.966;4.602;2023-09-19T05:13:12;64910.91;;;15.41;100.00
41636;BME280;27623;51.966;4.602;2023-09-19T05:15:38;64895.28;;;15.45;100.00
41636;BME280;27623;51.966;4.602;2023-09-19T05:18:04;64912.72;;;15.45;100.00
41636;BME280;27623;51.966;4.602;2023-09-19T05:20:31;64907.38;;;15.50;100.00
41636;BME280;27623;51.966;4.602;2023-09-19T05:23:06;64944.81;;;15.48;100.00
41636;BME280;27623;51.966;4.602;2023-09-19T05:25:39;64949.38;;;15.55;100.00
41636;BME280;27623;51.966;4.602;2023-09-19T05:28:09;64940.81;;;15.42;100.00
41636;BME280;27623;51.966;4.602;2023-09-19T05:30:38;64905.75;;;15.48;100.00
41636;BME280;27623;51.966;4.602;2023-09-19T05:33:08;64873.69;;;15.37;100.00
41636;BME280;27623;51.966;4.602;2023-09-19T05:35:34;64916.00;;;15.55;100.00
41636;BME280;27623;51.966;4.602;2023-09-19T05:38:05;64956.94;;;15.45;100.00
41636;BME280;27623;51.966;4.602;2023-09-19T05:40:34;64906.28;;;15.48;100.00
41636;BME280;27623;51.966;4.602;2023-09-19T05:43:00;64920.22;;;15.50;100.00
41636;BME280;27623;51.966;4.602;2023-09-19T05:45:25;64914.03;;;15.41;100.00
41636;BME280;27623;51.966;4.602;2023-09-19T05:47:53;64902.63;;;15.47;100.00
41636;BME280;27623;51.966;4.602;2023-09-19T05:50:26;64951.06;;;15.50;100.00
41636;BME280;27623;51.966;4.602;2023-09-19T05:52:52;64896.75;;;15.44;100.00
41636;BME280;27623;51.966;4.602;2023-09-19T05:55:18;64937.47;;;15.46;100.00
41636;BME280;27623;51.966;4.602;2023-09-19T05:57:49;64920.56;;;15.55;100.00
41636;BME280;27623;51.966;4.602;2023-09-19T06:00:15;64937.31;;;15.44;100.00
41636;BME280;27623;51.966;4.602;2023-09-19T06:02:43;64911.06;;;15.51;100.00
41636;BME280;27623;51.966;4.602;2023-09-19T06:05:10;64914.34;;;15.54;100.00
41636;BME280;27623;51.966;4.602;2023-09-19T06:07:36;64927.97;;;15.42;100.00
41636;BME280;27623;51.966;4.602;2023-09-19T06:10:04;64868.69;;;15.47;100.00
41636;BME280;27623;51.966;4.602;2023-09-19T06:12:38;64899.59;;;15.33;100.00
41636;BME280;27623;51.966;4.602;2023-09-19T06:15:05;64911.69;;;15.37;100.00
41636;BME280;27623;51.966;4.602;2023-09-19T06:17:34;64944.25;;;15.55;100.00
41636;BME280;27623;51.966;4.602;2023-09-19T06:20:04;64944.44;;;15.51;100.00
41636;BME280;27623;51.966;4.602;2023-09-19T06:22:36;64903.16;;;15.55;100.00
41636;BME280;27623;51.966;4.602;2023-09-19T06:25:04;64933.44;;;15.47;100.00
41636;BME280;27623;51.966;4.602;2023-09-19T06:27:29;64926.25;;;15.55;100.00
41636;BME280;27623;51.966;4.602;2023-09-19T06:29:54;64913.41;;;15.55;100.00
41636;BME280;27623;51.966;4.602;2023-09-19T06:32:27;64933.63;;;15.50;100.00
41636;BME280;27623;51.966;4.602;2023-09-19T06:34:54;64922.97;;;15.52;100.00
41636;BME280;27623;51.966;4.602;2023-09-19T06:37:20;64922.94;;;15.59;100.00
41636;BME280;27623;51.966;4.602;2023-09-19T06:39:47;64933.63;;;15.57;100.00
41636;BME280;27623;51.966;4.602;2023-09-19T06:42:14;64894.16;;;15.59;100.00
41636;BME280;27623;51.966;4.602;2023-09-19T06:44:42;64930.13;;;15.52;100.00
41636;BME280;27623;51.966;4.602;2023-09-19T06:47:08;64914.19;;;15.44;100.00
41636;BME280;27623;51.966;4.602;2023-09-19T06:49:34;64898.41;;;15.46;100.00
41636;BME280;27623;51.966;4.602;2023-09-19T06:52:00;64928.66;;;15.53;100.00
41636;BME280;27623;51.966;4.602;2023-09-19T06:54:26;64922.03;;;15.54;100.00
41636;BME280;27623;51.966;4.602;2023-09-19T06:56:55;64929.31;;;15.70;100.00
41636;BME280;27623;51.966;4.602;2023-09-19T06:59:20;64937.97;;;15.61;100.00
41636;BME280;27623;51.966;4.602;2023-09-19T07:01:46;64943.88;;;15.57;100.00
41636;BME280;27623;51.966;4.602;2023-09-19T07:04:12;64934.50;;;15.63;100.00
41636;BME280;27623;51.966;4.602;2023-09-19T07:06:38;64947.38;;;15.56;100.00
41636;BME280;27623;51.966;4.602;2023-09-19T07:09:03;64949.72;;;15.60;100.00
41636;BME280;27623;51.966;4.602;2023-09-19T07:11:29;64968.03;;;15.72;100.00
41636;BME280;27623;51.966;4.602;2023-09-19T07:13:56;64962.69;;;15.77;100.00
41636;BME280;27623;51.966;4.602;2023-09-19T07:16:21;64961.44;;;15.73;100.00
41636;BME280;27623;51.966;4.602;2023-09-19T07:18:56;64979.91;;;15.81;100.00
41636;BME280;27623;51.966;4.602;2023-09-19T07:21:22;64925.63;;;15.76;100.00
41636;BME280;27623;51.966;4.602;2023-09-19T07:23:48;64931.69;;;15.74;100.00
41636;BME280;27623;51.966;4.602;2023-09-19T07:26:15;64967.97;;;15.87;100.00
41636;BME280;27623;51.966;4.602;2023-09-19T07:28:40;64964.16;;;15.76;100.00
41636;BME280;27623;51.966;4.602;2023-09-19T07:31:05;64965.41;;;15.79;100.00
41636;BME280;27623;51.966;4.602;2023-09-19T07:33:34;64950.34;;;15.85;100.00
41636;BME280;27623;51.966;4.602;2023-09-19T07:35:59;64999.13;;;15.99;100.00
41636;BME280;27623;51.966;4.602;2023-09-19T07:38:25;64993.38;;;16.05;100.00
41636;BME280;27623;51.966;4.602;2023-09-19T07:40:52;64985.31;;;16.00;100.00
41636;BME280;27623;51.966;4.602;2023-09-19T07:43:17;65007.22;;;15.97;100.00
41636;BME280;27623;51.966;4.602;2023-09-19T07:45:43;65001.66;;;16.06;100.00
41636;BME280;27623;51.966;4.602;2023-09-19T07:48:08;65005.47;;;16.17;100.00
41636;BME280;27623;51.966;4.602;2023-09-19T07:50:39;65026.41;;;16.14;100.00
41636;BME280;27623;51.966;4.602;2023-09-19T07:53:05;65002.34;;;16.16;100.00
41636;BME280;27623;51.966;4.602;2023-09-19T07:55:33;65027.91;;;16.06;100.00
41636;BME280;27623;51.966;4.602;2023-09-19T07:57:59;65059.78;;;16.22;100.00
41636;BME280;27623;51.966;4.602;2023-09-19T08:00:25;65028.00;;;16.23;100.00
41636;BME280;27623;51.966;4.602;2023-09-19T08:02:50;65012.56;;;16.23;100.00
41636;BME280;27623;51.966;4.602;2023-09-19T08:05:17;65000.97;;;16.34;100.00
41636;BME280;27623;51.966;4.602;2023-09-19T08:07:46;65031.06;;;16.38;100.00
41636;BME280;27623;51.966;4.602;2023-09-19T08:10:15;65033.81;;;16.40;100.00
41636;BME280;27623;51.966;4.602;2023-09-19T08:12:45;65036.16;;;16.45;100.00
41636;BME280;27623;51.966;4.602;2023-09-19T08:15:15;65055.97;;;16.56;100.00
41636;BME280;27623;51.966;4.602;2023-09-19T08:17:44;65073.91;;;16.70;100.00
41636;BME280;27623;51.966;4.602;2023-09-19T08:20:10;65050.44;;;16.58;100.00
41636;BME280;27623;51.966;4.602;2023-09-19T08:22:48;65080.31;;;16.74;100.00
41636;BME280;27623;51.966;4.602;2023-09-19T08:25:15;65071.69;;;16.75;100.00
41636;BME280;27623;51.966;4.602;2023-09-19T08:27:47;65106.41;;;16.79;100.00
41636;BME280;27623;51.966;4.602;2023-09-19T08:30:20;65079.22;;;16.73;100.00
41636;BME280;27623;51.966;4.602;2023-09-19T08:32:49;65082.34;;;16.73;100.00
41636;BME280;27623;51.966;4.602;2023-09-19T08:35:15;65110.75;;;16.90;100.00
41636;BME280;27623;51.966;4.602;2023-09-19T08:37:40;65085.44;;;16.81;100.00
41636;BME280;27623;51.966;4.602;2023-09-19T08:40:06;65085.19;;;16.93;100.00
41636;BME280;27623;51.966;4.602;2023-09-19T08:42:54;65119.59;;;16.91;100.00
41636;BME280;27623;51.966;4.602;2023-09-19T08:45:20;65111.19;;;16.81;100.00
41636;BME280;27623;51.966;4.602;2023-09-19T08:48:23;65094.47;;;16.77;100.00
41636;BME280;27623;51.966;4.602;2023-09-19T08:51:11;65027.63;;;16.63;100.00
41636;BME280;27623;51.966;4.602;2023-09-19T08:56:12;65055.56;;;16.65;100.00
41636;BME280;27623;51.966;4.602;2023-09-19T08:59:00;65056.44;;;16.71;100.00
41636;BME280;27623;51.966;4.602;2023-09-19T09:01:28;65102.56;;;16.75;100.00
41636;BME280;27623;51.966;4.602;2023-09-19T09:03:55;65078.09;;;16.79;100.00
41636;BME280;27623;51.966;4.602;2023-09-19T09:06:21;65066.16;;;16.77;100.00
41636;BME280;27623;51.966;4.602;2023-09-19T09:08:50;65082.66;;;16.86;100.00
41636;BME280;27623;51.966;4.602;2023-09-19T09:11:16;65076.16;;;16.96;100.00
41636;BME280;27623;51.966;4.602;2023-09-19T09:13:43;65145.41;;;17.08;100.00
41636;BME280;27623;51.966;4.602;2023-09-19T09:16:10;65124.97;;;17.17;100.00
41636;BME280;27623;51.966;4.602;2023-09-19T09:18:36;65105.44;;;17.18;100.00
41636;BME280;27623;51.966;4.602;2023-09-19T09:21:01;65118.00;;;17.13;100.00
41636;BME280;27623;51.966;4.602;2023-09-19T09:23:27;65122.41;;;17.10;100.00
41636;BME280;27623;51.966;4.602;2023-09-19T09:25:57;65151.22;;;17.25;100.00
41636;BME280;27623;51.966;4.602;2023-09-19T09:28:25;65139.94;;;17.34;100.00
41636;BME280;27623;51.966;4.602;2023-09-19T09:30:53;65163.34;;;17.29;100.00
41636;BME280;27623;51.966;4.602;2023-09-19T09:33:19;65150.88;;;17.20;100.00
41636;BME280;27623;51.966;4.602;2023-09-19T09:38:18;65117.44;;;17.13;100.00
41636;BME280;27623;51.966;4.602;2023-09-19T09:40:50;65132.94;;;17.37;100.00
41636;BME280;27623;51.966;4.602;2023-09-19T09:43:33;65220.19;;;17.70;100.00
41636;BME280;27623;51.966;4.602;2023-09-19T09:46:16;65199.25;;;17.65;100.00
41636;BME280;27623;51.966;4.602;2023-09-19T09:48:56;65219.56;;;17.83;100.00
41636;BME280;27623;51.966;4.602;2023-09-19T09:51:51;65164.41;;;17.68;100.00
41636;BME280;27623;51.966;4.602;2023-09-19T09:54:25;65201.34;;;17.81;100.00
41636;BME280;27623;51.966;4.602;2023-09-19T09:57:11;65213.47;;;17.85;100.00
41636;BME280;27623;51.966;4.602;2023-09-19T10:02:29;65214.31;;;17.98;100.00
41636;BME280;27623;51.966;4.602;2023-09-19T10:07:49;65270.75;;;18.16;97.18
41636;BME280;27623;51.966;4.602;2023-09-19T10:13:13;65244.84;;;18.07;95.56
41636;BME280;27623;51.966;4.602;2023-09-19T10:15:44;65234.91;;;18.05;96.60
41636;BME280;27623;51.966;4.602;2023-09-19T10:18:26;65249.06;;;18.08;97.37
41636;BME280;27623;51.966;4.602;2023-09-19T10:20:53;65291.06;;;18.11;96.95
41636;BME280;27623;51.966;4.602;2023-09-19T10:23:21;65253.19;;;18.00;96.48
41636;BME280;27623;51.966;4.602;2023-09-19T10:25:51;65298.59;;;18.16;96.31
41636;BME280;27623;51.966;4.602;2023-09-19T10:28:18;65270.03;;;18.13;96.72
41636;BME280;27623;51.966;4.602;2023-09-19T10:30:50;65299.88;;;18.19;97.06
41636;BME280;27623;51.966;4.602;2023-09-19T10:33:18;65284.50;;;18.29;96.65
41636;BME280;27623;51.966;4.602;2023-09-19T10:35:51;65300.50;;;18.37;95.01
41636;BME280;27623;51.966;4.602;2023-09-19T10:38:23;65327.53;;;18.47;95.85
41636;BME280;27623;51.966;4.602;2023-09-19T10:40:52;65359.16;;;18.65;96.39
41636;BME280;27623;51.966;4.602;2023-09-19T10:43:25;65375.00;;;18.70;93.63
41636;BME280;27623;51.966;4.602;2023-09-19T10:45:51;65365.19;;;18.77;92.57
41636;BME280;27623;51.966;4.602;2023-09-19T10:48:20;65314.63;;;18.47;93.07
41636;BME280;27623;51.966;4.602;2023-09-19T10:50:58;65313.56;;;18.39;91.90
41636;BME280;27623;51.966;4.602;2023-09-19T10:53:41;65311.34;;;18.44;92.03
41636;BME280;27623;51.966;4.602;2023-09-19T10:56:08;65360.44;;;18.68;91.45
41636;BME280;27623;51.966;4.602;2023-09-19T10:58:42;65384.88;;;18.86;90.28
41636;BME280;27623;51.966;4.602;2023-09-19T11:01:10;65412.47;;;18.97;89.08
41636;BME280;27623;51.966;4.602;2023-09-19T11:03:41;65422.97;;;19.00;86.58
41636;BME280;27623;51.966;4.602;2023-09-19T11:08:56;65434.25;;;18.98;88.09
41636;BME280;27623;51.966;4.602;2023-09-19T11:11:45;65387.56;;;18.96;87.86
41636;BME280;27623;51.966;4.602;2023-09-19T11:30:42;65398.38;;;18.79;87.97
41636;BME280;27623;51.966;4.602;2023-09-19T11:33:22;65355.84;;;18.69;88.08
41636;BME280;27623;51.966;4.602;2023-09-19T11:36:05;65386.66;;;18.66;89.15
41636;BME280;27623;51.966;4.602;2023-09-19T11:43:47;65360.50;;;18.54;89.53
41636;BME280;27623;51.966;4.602;2023-09-19T11:46:16;65365.88;;;18.49;91.04
41636;BME280;27623;51.966;4.602;2023-09-19T11:48:43;65346.53;;;18.46;90.86
41636;BME280;27623;51.966;4.602;2023-09-19T11:51:23;65364.94;;;18.51;91.12
41636;BME280;27623;51.966;4.602;2023-09-19T11:53:53;65361.66;;;18.48;91.53
41636;BME280;27623;51.966;4.602;2023-09-19T11:56:23;65337.63;;;18.52;91.67
41636;BME280;27623;51.966;4.602;2023-09-19T11:58:52;65350.41;;;18.49;90.82
41636;BME280;27623;51.966;4.602;2023-09-19T12:01:24;65349.06;;;18.53;92.38
41636;BME280;27623;51.966;4.602;2023-09-19T12:03:56;65391.81;;;18.66;92.04
41636;BME280;27623;51.966;4.602;2023-09-19T12:06:28;65345.00;;;18.54;92.42
41636;BME280;27623;51.966;4.602;2023-09-19T12:09:02;65388.13;;;18.58;92.74
41636;BME280;27623;51.966;4.602;2023-09-19T12:11:32;65389.56;;;18.71;92.13
41636;BME280;27623;51.966;4.602;2023-09-19T12:13:58;65410.34;;;18.81;91.69
41636;BME280;27623;51.966;4.602;2023-09-19T12:16:26;65432.75;;;18.99;90.95
41636;BME280;27623;51.966;4.602;2023-09-19T12:18:55;65403.66;;;18.89;90.27
41636;BME280;27623;51.966;4.602;2023-09-19T12:21:26;65393.28;;;18.96;90.62
41636;BME280;27623;51.966;4.602;2023-09-19T12:26:26;65432.13;;;19.13;91.95
41636;BME280;27623;51.966;4.602;2023-09-19T12:28:54;65437.22;;;19.27;90.84
41636;BME280;27623;51.966;4.602;2023-09-19T12:31:20;65493.44;;;19.41;88.70
41636;BME280;27623;51.966;4.602;2023-09-19T12:33:45;65457.28;;;19.34;90.41
41636;BME280;27623;51.966;4.602;2023-09-19T12:36:23;65446.78;;;19.31;89.97
41636;BME280;27623;51.966;4.602;2023-09-19T12:38:50;65493.47;;;19.34;88.96
41636;BME280;27623;51.966;4.602;2023-09-19T12:41:19;65522.53;;;19.89;89.14
41636;BME280;27623;51.966;4.602;2023-09-19T12:43:46;65554.50;;;20.18;87.64
41636;BME280;27623;51.966;4.602;2023-09-19T12:46:11;65584.44;;;19.94;86.79
41636;BME280;27623;51.966;4.602;2023-09-19T12:48:37;65544.69;;;19.95;86.60
41636;BME280;27623;51.966;4.602;2023-09-19T12:51:10;65556.75;;;20.13;86.81
41636;BME280;27623;51.966;4.602;2023-09-19T12:53:44;65618.31;;;20.51;85.21
41636;BME280;27623;51.966;4.602;2023-09-19T12:56:15;65638.31;;;20.72;84.68
41636;BME280;27623;51.966;4.602;2023-09-19T12:58:58;65613.22;;;20.37;84.80
41636;BME280;27623;51.966;4.602;2023-09-19T13:01:28;65590.16;;;20.25;86.34
41636;BME280;27623;51.966;4.602;2023-09-19T13:04:17;65510.91;;;19.85;86.35
41636;BME280;27623;51.966;4.602;2023-09-19T13:06:51;65505.56;;;19.83;87.91
41636;BME280;27623;51.966;4.602;2023-09-19T13:09:19;65494.69;;;19.51;87.53
41636;BME280;27623;51.966;4.602;2023-09-19T13:11:46;65492.44;;;19.56;87.52
41636;BME280;27623;51.966;4.602;2023-09-19T13:19:50;65428.09;;;19.38;88.35
41636;BME280;27623;51.966;4.602;2023-09-19T13:22:42;65424.13;;;19.25;87.76
41636;BME280;27623;51.966;4.602;2023-09-19T13:25:17;65487.34;;;19.42;88.18
41636;BME280;27623;51.966;4.602;2023-09-19T13:30:18;65484.47;;;19.30;87.81
41636;BME280;27623;51.966;4.602;2023-09-19T13:32:44;65482.44;;;19.31;88.36
41636;BME280;27623;51.966;4.602;2023-09-19T13:35:10;65445.13;;;19.30;88.09
41636;BME280;27623;51.966;4.602;2023-09-19T13:37:38;65464.34;;;19.31;88.36
41636;BME280;27623;51.966;4.602;2023-09-19T13:40:16;65436.50;;;19.24;88.54
41636;BME280;27623;51.966;4.602;2023-09-19T13:42:42;65459.22;;;19.16;88.67
41636;BME280;27623;51.966;4.602;2023-09-19T13:45:08;65423.97;;;19.15;88.84
41636;BME280;27623;51.966;4.602;2023-09-19T13:47:38;65425.44;;;19.21;88.91
41636;BME280;27623;51.966;4.602;2023-09-19T13:50:04;65415.75;;;19.07;90.00
41636;BME280;27623;51.966;4.602;2023-09-19T13:52:31;65432.56;;;19.04;90.26
41636;BME280;27623;51.966;4.602;2023-09-19T13:54:57;65435.47;;;19.09;89.88
41636;BME280;27623;51.966;4.602;2023-09-19T13:57:23;65460.53;;;19.13;89.79
41636;BME280;27623;51.966;4.602;2023-09-19T13:59:49;65420.47;;;19.16;88.99
41636;BME280;27623;51.966;4.602;2023-09-19T14:02:14;65397.75;;;19.17;89.94
41636;BME280;27623;51.966;4.602;2023-09-19T14:04:40;65428.00;;;19.21;89.85
41636;BME280;27623;51.966;4.602;2023-09-19T14:07:06;65462.78;;;19.08;89.50
41636;BME280;27623;51.966;4.602;2023-09-19T14:09:33;65440.97;;;19.14;90.56
41636;BME280;27623;51.966;4.602;2023-09-19T14:11:59;65438.94;;;19.14;90.93